sensor_id;sensor_type;location;lat;lon;timestamp;P1;durP1;ratioP1;P2;durP2;ratioP2
20146;SDS011;10234;50.856;15.716;2022-12-07T00:00:34;2.08;;;1.50;;
20146;SDS011;10234;50.856;15.716;2022-12-07T00:03:01;2.35;;;1.67;;
20146;SDS011;10234;50.856;15.716;2022-12-07T00:05:29;2.08;;;1.45;;
20146;SDS011;10234;50.856;15.716;2022-12-07T00:07:56;1.30;;;1.10;;
20146;SDS011;10234;50.856;15.716;2022-12-07T00:10:23;2.30;;;1.10;;
20146;SDS011;10234;50.856;15.716;2022-12-07T00:12:50;1.98;;;1.55;;
20146;SDS011;10234;50.856;15.716;2022-12-07T00:15:17;1.35;;;0.90;;
20146;SDS011;10234;50.856;15.716;2022-12-07T00:17:45;1.45;;;1.35;;
20146;SDS011;10234;50.856;15.716;2022-12-07T00:20:12;0.93;;;0.77;;
20146;SDS011;10234;50.856;15.716;2022-12-07T00:22:39;1.05;;;0.73;;
20146;SDS011;10234;50.856;15.716;2022-12-07T00:25:06;0.77;;;0.70;;
20146;SDS011;10234;50.856;15.716;2022-12-07T00:27:33;0.90;;;0.90;;
20146;SDS011;10234;50.856;15.716;2022-12-07T00:30:00;1.45;;;1.10;;
20146;SDS011;10234;50.856;15.716;2022-12-07T00:32:27;1.25;;;1.08;;
20146;SDS011;10234;50.856;15.716;2022-12-07T00:34:55;1.00;;;0.90;;
20146;SDS011;10234;50.856;15.716;2022-12-07T00:37:22;1.58;;;1.48;;
20146;SDS011;10234;50.856;15.716;2022-12-07T00:39:49;2.83;;;1.55;;
20146;SDS011;10234;50.856;15.716;2022-12-07T00:42:15;1.95;;;1.55;;
20146;SDS011;10234;50.856;15.716;2022-12-07T00:44:42;1.95;;;1.35;;
20146;SDS011;10234;50.856;15.716;2022-12-07T00:47:09;1.88;;;1.38;;
20146;SDS011;10234;50.856;15.716;2022-12-07T00:49:36;2.30;;;1.58;;
20146;SDS011;10234;50.856;15.716;2022-12-07T00:52:04;2.17;;;1.10;;
20146;SDS011;10234;50.856;15.716;2022-12-07T00:54:31;1.95;;;1.23;;
20146;SDS011;10234;50.856;15.716;2022-12-07T00:56:58;3.97;;;1.70;;
20146;SDS011;10234;50.856;15.716;2022-12-07T00:59:25;1.45;;;1.35;;
20146;SDS011;10234;50.856;15.716;2022-12-07T01:01:52;2.55;;;1.35;;
20146;SDS011;10234;50.856;15.716;2022-12-07T01:04:19;1.20;;;1.10;;
20146;SDS011;10234;50.856;15.716;2022-12-07T01:06:46;1.45;;;1.30;;
20146;SDS011;10234;50.856;15.716;2022-12-07T01:09:14;1.40;;;1.10;;
20146;SDS011;10234;50.856;15.716;2022-12-07T01:11:41;1.08;;;0.98;;
20146;SDS011;10234;50.856;15.716;2022-12-07T01:14:08;1.20;;;1.10;;
20146;SDS011;10234;50.856;15.716;2022-12-07T01:16:35;1.50;;;1.25;;
20146;SDS011;10234;50.856;15.716;2022-12-07T01:19:02;1.17;;;1.08;;
20146;SDS011;10234;50.856;15.716;2022-12-07T01:21:31;2.38;;;1.05;;
20146;SDS011;10234;50.856;15.716;2022-12-07T01:24:01;1.10;;;1.00;;
20146;SDS011;10234;50.856;15.716;2022-12-07T01:26:30;0.88;;;0.80;;
20146;SDS011;10234;50.856;15.716;2022-12-07T01:28:57;1.10;;;1.00;;
20146;SDS011;10234;50.856;15.716;2022-12-07T01:31:26;1.42;;;0.90;;
20146;SDS011;10234;50.856;15.716;2022-12-07T01:33:54;0.73;;;0.73;;
20146;SDS011;10234;50.856;15.716;2022-12-07T01:36:22;1.00;;;0.90;;
20146;SDS011;10234;50.856;15.716;2022-12-07T01:38:51;0.85;;;0.85;;
20146;SDS011;10234;50.856;15.716;2022-12-07T01:41:22;1.00;;;0.90;;
20146;SDS011;10234;50.856;15.716;2022-12-07T01:46:56;1.65;;;1.20;;
20146;SDS011;10234;50.856;15.716;2022-12-07T01:49:28;1.85;;;1.50;;
20146;SDS011;10234;50.856;15.716;2022-12-07T01:52:00;1.77;;;1.10;;
20146;SDS011;10234;50.856;15.716;2022-12-07T01:54:35;1.33;;;0.80;;
20146;SDS011;10234;50.856;15.716;2022-12-07T01:57:02;0.85;;;0.85;;
20146;SDS011;10234;50.856;15.716;2022-12-07T01:59:30;0.95;;;0.90;;
20146;SDS011;10234;50.856;15.716;2022-12-07T02:01:59;1.23;;;1.13;;
20146;SDS011;10234;50.856;15.716;2022-12-07T02:04:30;1.33;;;1.13;;
20146;SDS011;10234;50.856;15.716;2022-12-07T02:06:57;1.80;;;1.13;;
20146;SDS011;10234;50.856;15.716;2022-12-07T02:09:24;1.67;;;1.38;;
20146;SDS011;10234;50.856;15.716;2022-12-07T02:11:51;1.15;;;0.98;;
20146;SDS011;10234;50.856;15.716;2022-12-07T02:14:20;2.40;;;1.10;;
20146;SDS011;10234;50.856;15.716;2022-12-07T02:16:49;2.15;;;1.55;;
20146;SDS011;10234;50.856;15.716;2022-12-07T02:22:39;1.10;;;1.00;;
20146;SDS011;10234;50.856;15.716;2022-12-07T02:25:30;0.98;;;0.90;;
20146;SDS011;10234;50.856;15.716;2022-12-07T02:28:09;1.45;;;1.00;;
20146;SDS011;10234;50.856;15.716;2022-12-07T02:30:47;0.68;;;0.68;;
20146;SDS011;10234;50.856;15.716;2022-12-07T02:33:16;1.20;;;0.70;;
20146;SDS011;10234;50.856;15.716;2022-12-07T02:35:48;1.70;;;0.93;;
20146;SDS011;10234;50.856;15.716;2022-12-07T02:38:23;0.90;;;0.90;;
20146;SDS011;10234;50.856;15.716;2022-12-07T02:40:53;0.75;;;0.75;;
20146;SDS011;10234;50.856;15.716;2022-12-07T02:43:24;1.30;;;1.10;;
20146;SDS011;10234;50.856;15.716;2022-12-07T02:45:54;1.40;;;1.08;;
20146;SDS011;10234;50.856;15.716;2022-12-07T02:48:24;1.95;;;1.00;;
20146;SDS011;10234;50.856;15.716;2022-12-07T02:50:52;1.73;;;1.15;;
20146;SDS011;10234;50.856;15.716;2022-12-07T02:53:34;1.33;;;1.05;;
20146;SDS011;10234;50.856;15.716;2022-12-07T02:56:04;1.45;;;1.00;;
20146;SDS011;10234;50.856;15.716;2022-12-07T02:58:41;1.05;;;1.00;;
20146;SDS011;10234;50.856;15.716;2022-12-07T03:01:19;2.05;;;1.30;;
20146;SDS011;10234;50.856;15.716;2022-12-07T03:03:56;1.38;;;1.27;;
20146;SDS011;10234;50.856;15.716;2022-12-07T03:06:29;1.35;;;1.20;;
20146;SDS011;10234;50.856;15.716;2022-12-07T03:09:01;2.05;;;1.30;;
20146;SDS011;10234;50.856;15.716;2022-12-07T03:11:38;1.60;;;1.20;;
20146;SDS011;10234;50.856;15.716;2022-12-07T03:14:13;1.35;;;1.20;;
20146;SDS011;10234;50.856;15.716;2022-12-07T03:16:46;0.95;;;0.95;;
20146;SDS011;10234;50.856;15.716;2022-12-07T03:19:19;1.10;;;0.90;;
20146;SDS011;10234;50.856;15.716;2022-12-07T03:21:49;1.02;;;0.80;;
20146;SDS011;10234;50.856;15.716;2022-12-07T03:24:22;0.93;;;0.88;;
20146;SDS011;10234;50.856;15.716;2022-12-07T03:26:53;1.30;;;1.10;;
20146;SDS011;10234;50.856;15.716;2022-12-07T03:29:25;0.77;;;0.70;;
20146;SDS011;10234;50.856;15.716;2022-12-07T03:31:58;1.60;;;0.70;;
20146;SDS011;10234;50.856;15.716;2022-12-07T03:34:31;0.90;;;0.80;;
20146;SDS011;10234;50.856;15.716;2022-12-07T03:37:00;0.80;;;0.80;;
20146;SDS011;10234;50.856;15.716;2022-12-07T03:39:33;0.82;;;0.82;;
20146;SDS011;10234;50.856;15.716;2022-12-07T03:42:04;1.55;;;1.10;;
20146;SDS011;10234;50.856;15.716;2022-12-07T03:44:32;1.25;;;1.05;;
20146;SDS011;10234;50.856;15.716;2022-12-07T03:47:03;1.05;;;0.88;;
20146;SDS011;10234;50.856;15.716;2022-12-07T03:49:32;1.23;;;1.13;;
20146;SDS011;10234;50.856;15.716;2022-12-07T03:52:08;0.80;;;0.80;;
20146;SDS011;10234;50.856;15.716;2022-12-07T03:54:41;1.48;;;1.00;;
20146;SDS011;10234;50.856;15.716;2022-12-07T03:57:14;1.10;;;1.00;;
20146;SDS011;10234;50.856;15.716;2022-12-07T03:59:41;1.35;;;1.20;;
20146;SDS011;10234;50.856;15.716;2022-12-07T04:02:11;2.22;;;1.73;;
20146;SDS011;10234;50.856;15.716;2022-12-07T04:04:39;2.38;;;1.63;;
20146;SDS011;10234;50.856;15.716;2022-12-07T04:07:08;2.15;;;1.40;;
20146;SDS011;10234;50.856;15.716;2022-12-07T04:09:35;2.13;;;1.55;;
20146;SDS011;10234;50.856;15.716;2022-12-07T04:12:02;2.15;;;1.75;;
20146;SDS011;10234;50.856;15.716;2022-12-07T04:14:29;1.90;;;1.70;;
20146;SDS011;10234;50.856;15.716;2022-12-07T04:16:57;3.25;;;2.28;;
20146;SDS011;10234;50.856;15.716;2022-12-07T04:19:27;1.70;;;1.60;;
20146;SDS011;10234;50.856;15.716;2022-12-07T04:21:56;2.15;;;2.00;;
20146;SDS011;10234;50.856;15.716;2022-12-07T04:24:24;3.35;;;2.22;;
20146;SDS011;10234;50.856;15.716;2022-12-07T04:26:51;4.13;;;2.70;;
20146;SDS011;10234;50.856;15.716;2022-12-07T04:29:18;3.17;;;2.47;;
20146;SDS011;10234;50.856;15.716;2022-12-07T04:31:46;3.47;;;2.67;;
20146;SDS011;10234;50.856;15.716;2022-12-07T04:34:13;2.90;;;2.53;;
20146;SDS011;10234;50.856;15.716;2022-12-07T04:36:42;4.82;;;3.22;;
20146;SDS011;10234;50.856;15.716;2022-12-07T04:39:13;5.10;;;3.67;;
20146;SDS011;10234;50.856;15.716;2022-12-07T04:41:44;3.55;;;3.25;;
20146;SDS011;10234;50.856;15.716;2022-12-07T04:44:11;6.45;;;4.28;;
20146;SDS011;10234;50.856;15.716;2022-12-07T04:46:39;5.22;;;3.92;;
20146;SDS011;10234;50.856;15.716;2022-12-07T04:49:07;4.63;;;4.18;;
20146;SDS011;10234;50.856;15.716;2022-12-07T04:51:34;5.18;;;4.38;;
20146;SDS011;10234;50.856;15.716;2022-12-07T04:54:02;6.05;;;4.78;;
20146;SDS011;10234;50.856;15.716;2022-12-07T04:56:30;6.35;;;4.57;;
20146;SDS011;10234;50.856;15.716;2022-12-07T04:58:57;6.93;;;5.03;;
20146;SDS011;10234;50.856;15.716;2022-12-07T05:01:24;5.57;;;4.72;;
20146;SDS011;10234;50.856;15.716;2022-12-07T05:03:51;6.63;;;4.78;;
20146;SDS011;10234;50.856;15.716;2022-12-07T05:06:18;7.20;;;5.00;;
20146;SDS011;10234;50.856;15.716;2022-12-07T05:08:45;6.28;;;5.13;;
20146;SDS011;10234;50.856;15.716;2022-12-07T05:11:13;6.32;;;4.63;;
20146;SDS011;10234;50.856;15.716;2022-12-07T05:14:01;8.23;;;5.85;;
20146;SDS011;10234;50.856;15.716;2022-12-07T05:16:29;7.50;;;5.68;;
20146;SDS011;10234;50.856;15.716;2022-12-07T05:18:56;8.95;;;6.25;;
20146;SDS011;10234;50.856;15.716;2022-12-07T05:21:23;8.40;;;6.78;;
20146;SDS011;10234;50.856;15.716;2022-12-07T05:23:50;8.60;;;6.05;;
20146;SDS011;10234;50.856;15.716;2022-12-07T05:26:19;7.10;;;5.30;;
20146;SDS011;10234;50.856;15.716;2022-12-07T05:28:49;7.75;;;5.35;;
20146;SDS011;10234;50.856;15.716;2022-12-07T05:31:16;6.30;;;4.80;;
20146;SDS011;10234;50.856;15.716;2022-12-07T05:33:43;7.05;;;4.57;;
20146;SDS011;10234;50.856;15.716;2022-12-07T05:36:10;7.18;;;5.10;;
20146;SDS011;10234;50.856;15.716;2022-12-07T05:38:37;6.65;;;4.57;;
20146;SDS011;10234;50.856;15.716;2022-12-07T05:41:05;8.43;;;4.88;;
20146;SDS011;10234;50.856;15.716;2022-12-07T05:43:34;8.95;;;5.88;;
20146;SDS011;10234;50.856;15.716;2022-12-07T05:46:00;7.93;;;5.72;;
20146;SDS011;10234;50.856;15.716;2022-12-07T05:48:26;8.52;;;6.50;;
20146;SDS011;10234;50.856;15.716;2022-12-07T05:50:53;7.97;;;6.10;;
20146;SDS011;10234;50.856;15.716;2022-12-07T05:53:20;9.73;;;6.72;;
20146;SDS011;10234;50.856;15.716;2022-12-07T05:55:47;9.13;;;6.60;;
20146;SDS011;10234;50.856;15.716;2022-12-07T05:58:14;9.85;;;6.55;;
20146;SDS011;10234;50.856;15.716;2022-12-07T06:01:00;9.60;;;7.10;;
20146;SDS011;10234;50.856;15.716;2022-12-07T06:03:27;12.10;;;7.60;;
20146;SDS011;10234;50.856;15.716;2022-12-07T06:05:54;12.40;;;7.57;;
20146;SDS011;10234;50.856;15.716;2022-12-07T06:08:21;8.80;;;6.10;;
20146;SDS011;10234;50.856;15.716;2022-12-07T06:10:48;8.35;;;5.60;;
20146;SDS011;10234;50.856;15.716;2022-12-07T06:13:36;6.47;;;5.22;;
20146;SDS011;10234;50.856;15.716;2022-12-07T06:16:04;22.75;;;6.15;;
20146;SDS011;10234;50.856;15.716;2022-12-07T06:18:32;6.72;;;4.57;;
20146;SDS011;10234;50.856;15.716;2022-12-07T06:20:59;5.00;;;3.65;;
20146;SDS011;10234;50.856;15.716;2022-12-07T06:23:26;4.70;;;3.42;;
20146;SDS011;10234;50.856;15.716;2022-12-07T06:25:53;7.90;;;3.95;;
20146;SDS011;10234;50.856;15.716;2022-12-07T06:28:20;3.13;;;2.63;;
20146;SDS011;10234;50.856;15.716;2022-12-07T06:30:47;2.45;;;2.17;;
20146;SDS011;10234;50.856;15.716;2022-12-07T06:33:16;2.70;;;2.47;;
20146;SDS011;10234;50.856;15.716;2022-12-07T06:35:43;4.22;;;2.83;;
20146;SDS011;10234;50.856;15.716;2022-12-07T06:38:09;2.65;;;2.28;;
20146;SDS011;10234;50.856;15.716;2022-12-07T06:40:37;3.80;;;2.72;;
20146;SDS011;10234;50.856;15.716;2022-12-07T06:43:03;2.75;;;2.53;;
20146;SDS011;10234;50.856;15.716;2022-12-07T06:45:31;3.33;;;2.80;;
20146;SDS011;10234;50.856;15.716;2022-12-07T06:47:58;2.92;;;2.33;;
20146;SDS011;10234;50.856;15.716;2022-12-07T06:50:26;2.70;;;1.90;;
20146;SDS011;10234;50.856;15.716;2022-12-07T06:52:53;2.80;;;2.40;;
20146;SDS011;10234;50.856;15.716;2022-12-07T06:55:21;3.55;;;2.40;;
20146;SDS011;10234;50.856;15.716;2022-12-07T06:57:48;2.15;;;1.95;;
20146;SDS011;10234;50.856;15.716;2022-12-07T07:00:15;2.53;;;2.08;;
20146;SDS011;10234;50.856;15.716;2022-12-07T07:02:42;2.20;;;1.80;;
20146;SDS011;10234;50.856;15.716;2022-12-07T07:05:09;2.88;;;2.60;;
20146;SDS011;10234;50.856;15.716;2022-12-07T07:07:38;2.60;;;2.33;;
20146;SDS011;10234;50.856;15.716;2022-12-07T07:10:05;2.55;;;2.15;;
20146;SDS011;10234;50.856;15.716;2022-12-07T07:12:32;2.25;;;2.05;;
20146;SDS011;10234;50.856;15.716;2022-12-07T07:14:59;2.22;;;1.92;;
20146;SDS011;10234;50.856;15.716;2022-12-07T07:17:26;2.92;;;2.70;;
20146;SDS011;10234;50.856;15.716;2022-12-07T07:19:53;3.00;;;2.50;;
20146;SDS011;10234;50.856;15.716;2022-12-07T07:22:20;3.50;;;2.40;;
20146;SDS011;10234;50.856;15.716;2022-12-07T07:24:48;2.58;;;1.90;;
20146;SDS011;10234;50.856;15.716;2022-12-07T07:27:15;2.05;;;1.83;;
20146;SDS011;10234;50.856;15.716;2022-12-07T07:29:42;2.80;;;2.28;;
20146;SDS011;10234;50.856;15.716;2022-12-07T07:32:09;1.83;;;1.60;;
20146;SDS011;10234;50.856;15.716;2022-12-07T07:34:37;1.83;;;1.65;;
20146;SDS011;10234;50.856;15.716;2022-12-07T07:37:04;2.10;;;1.90;;
20146;SDS011;10234;50.856;15.716;2022-12-07T07:39:30;1.50;;;1.40;;
20146;SDS011;10234;50.856;15.716;2022-12-07T07:41:59;3.25;;;2.05;;
20146;SDS011;10234;50.856;15.716;2022-12-07T07:44:25;2.13;;;1.92;;
20146;SDS011;10234;50.856;15.716;2022-12-07T07:46:52;2.30;;;1.85;;
20146;SDS011;10234;50.856;15.716;2022-12-07T07:49:19;1.67;;;1.40;;
20146;SDS011;10234;50.856;15.716;2022-12-07T07:51:46;3.00;;;1.90;;
20146;SDS011;10234;50.856;15.716;2022-12-07T07:54:13;2.35;;;1.88;;
20146;SDS011;10234;50.856;15.716;2022-12-07T07:56:40;2.15;;;1.58;;
20146;SDS011;10234;50.856;15.716;2022-12-07T07:59:09;2.13;;;1.92;;
20146;SDS011;10234;50.856;15.716;2022-12-07T08:01:36;2.50;;;1.98;;
20146;SDS011;10234;50.856;15.716;2022-12-07T08:04:02;1.83;;;1.63;;
20146;SDS011;10234;50.856;15.716;2022-12-07T08:06:29;1.65;;;1.55;;
20146;SDS011;10234;50.856;15.716;2022-12-07T08:08:56;2.85;;;1.90;;
20146;SDS011;10234;50.856;15.716;2022-12-07T08:11:24;2.00;;;1.90;;
20146;SDS011;10234;50.856;15.716;2022-12-07T08:13:51;1.92;;;1.58;;
20146;SDS011;10234;50.856;15.716;2022-12-07T08:16:19;2.42;;;1.92;;
20146;SDS011;10234;50.856;15.716;2022-12-07T08:18:47;2.70;;;2.20;;
20146;SDS011;10234;50.856;15.716;2022-12-07T08:21:14;2.13;;;1.92;;
20146;SDS011;10234;50.856;15.716;2022-12-07T08:23:41;4.18;;;2.63;;
20146;SDS011;10234;50.856;15.716;2022-12-07T08:26:10;3.72;;;2.78;;
20146;SDS011;10234;50.856;15.716;2022-12-07T08:28:38;9.82;;;4.88;;
20146;SDS011;10234;50.856;15.716;2022-12-07T08:31:05;3.30;;;2.63;;
20146;SDS011;10234;50.856;15.716;2022-12-07T08:33:35;4.28;;;2.65;;
20146;SDS011;10234;50.856;15.716;2022-12-07T08:36:03;3.78;;;2.25;;
20146;SDS011;10234;50.856;15.716;2022-12-07T08:38:31;3.95;;;3.53;;
20146;SDS011;10234;50.856;15.716;2022-12-07T08:40:58;5.72;;;3.35;;
20146;SDS011;10234;50.856;15.716;2022-12-07T08:43:25;3.88;;;2.83;;
20146;SDS011;10234;50.856;15.716;2022-12-07T08:45:55;2.72;;;2.20;;
20146;SDS011;10234;50.856;15.716;2022-12-07T08:48:29;2.35;;;1.77;;
20146;SDS011;10234;50.856;15.716;2022-12-07T08:50:59;1.98;;;1.70;;
20146;SDS011;10234;50.856;15.716;2022-12-07T08:53:27;1.80;;;1.38;;
20146;SDS011;10234;50.856;15.716;2022-12-07T08:55:55;2.75;;;1.88;;
20146;SDS011;10234;50.856;15.716;2022-12-07T08:58:23;2.65;;;2.05;;
20146;SDS011;10234;50.856;15.716;2022-12-07T09:00:50;3.25;;;2.45;;
20146;SDS011;10234;50.856;15.716;2022-12-07T09:03:17;4.97;;;3.13;;
20146;SDS011;10234;50.856;15.716;2022-12-07T09:05:44;2.42;;;2.20;;
20146;SDS011;10234;50.856;15.716;2022-12-07T09:08:13;2.53;;;2.30;;
20146;SDS011;10234;50.856;15.716;2022-12-07T09:10:40;3.42;;;2.58;;
20146;SDS011;10234;50.856;15.716;2022-12-07T09:13:07;1.40;;;1.30;;
20146;SDS011;10234;50.856;15.716;2022-12-07T09:15:34;2.65;;;1.70;;
20146;SDS011;10234;50.856;15.716;2022-12-07T09:18:01;1.88;;;1.25;;
20146;SDS011;10234;50.856;15.716;2022-12-07T09:20:28;1.77;;;1.60;;
20146;SDS011;10234;50.856;15.716;2022-12-07T09:22:55;2.20;;;1.70;;
20146;SDS011;10234;50.856;15.716;2022-12-07T09:25:24;1.77;;;1.33;;
20146;SDS011;10234;50.856;15.716;2022-12-07T09:27:54;1.40;;;1.30;;
20146;SDS011;10234;50.856;15.716;2022-12-07T09:30:22;2.35;;;1.80;;
20146;SDS011;10234;50.856;15.716;2022-12-07T09:32:49;2.78;;;1.17;;
20146;SDS011;10234;50.856;15.716;2022-12-07T09:35:16;1.35;;;1.17;;
20146;SDS011;10234;50.856;15.716;2022-12-07T09:37:43;1.92;;;1.50;;
20146;SDS011;10234;50.856;15.716;2022-12-07T09:40:10;1.95;;;1.50;;
20146;SDS011;10234;50.856;15.716;2022-12-07T09:42:39;1.63;;;1.50;;
20146;SDS011;10234;50.856;15.716;2022-12-07T09:45:11;1.95;;;1.45;;
20146;SDS011;10234;50.856;15.716;2022-12-07T09:47:41;1.48;;;1.35;;
20146;SDS011;10234;50.856;15.716;2022-12-07T09:50:12;2.05;;;1.67;;
20146;SDS011;10234;50.856;15.716;2022-12-07T09:52:41;1.40;;;1.30;;
20146;SDS011;10234;50.856;15.716;2022-12-07T09:55:10;3.05;;;1.67;;
20146;SDS011;10234;50.856;15.716;2022-12-07T09:57:39;1.67;;;1.58;;
20146;SDS011;10234;50.856;15.716;2022-12-07T10:00:10;1.50;;;1.40;;
20146;SDS011;10234;50.856;15.716;2022-12-07T10:02:40;1.95;;;1.75;;
20146;SDS011;10234;50.856;15.716;2022-12-07T10:05:10;2.88;;;1.63;;
20146;SDS011;10234;50.856;15.716;2022-12-07T10:07:42;5.47;;;3.80;;
20146;SDS011;10234;50.856;15.716;2022-12-07T10:10:12;1.60;;;1.48;;
20146;SDS011;10234;50.856;15.716;2022-12-07T10:12:56;2.40;;;1.95;;
20146;SDS011;10234;50.856;15.716;2022-12-07T10:18:21;1.27;;;1.17;;
20146;SDS011;10234;50.856;15.716;2022-12-07T10:21:04;1.48;;;1.30;;
20146;SDS011;10234;50.856;15.716;2022-12-07T10:23:39;1.90;;;1.65;;
20146;SDS011;10234;50.856;15.716;2022-12-07T10:26:20;1.60;;;1.50;;
20146;SDS011;10234;50.856;15.716;2022-12-07T10:28:57;15.43;;;7.35;;
20146;SDS011;10234;50.856;15.716;2022-12-07T10:31:26;6.18;;;3.38;;
20146;SDS011;10234;50.856;15.716;2022-12-07T10:33:54;11.13;;;5.50;;
20146;SDS011;10234;50.856;15.716;2022-12-07T10:36:24;3.47;;;2.10;;
20146;SDS011;10234;50.856;15.716;2022-12-07T10:38:53;2.47;;;1.75;;
20146;SDS011;10234;50.856;15.716;2022-12-07T10:41:26;5.03;;;2.97;;
20146;SDS011;10234;50.856;15.716;2022-12-07T10:43:54;2.13;;;1.70;;
20146;SDS011;10234;50.856;15.716;2022-12-07T10:46:34;3.30;;;2.20;;
20146;SDS011;10234;50.856;15.716;2022-12-07T10:52:36;2.85;;;1.98;;
20146;SDS011;10234;50.856;15.716;2022-12-07T10:55:13;3.53;;;2.70;;
20146;SDS011;10234;50.856;15.716;2022-12-07T10:57:50;2.42;;;1.95;;
20146;SDS011;10234;50.856;15.716;2022-12-07T11:00:27;1.48;;;1.38;;
20146;SDS011;10234;50.856;15.716;2022-12-07T11:03:20;1.83;;;1.60;;
20146;SDS011;10234;50.856;15.716;2022-12-07T11:05:59;4.28;;;2.25;;
20146;SDS011;10234;50.856;15.716;2022-12-07T11:08:43;2.83;;;2.00;;
20146;SDS011;10234;50.856;15.716;2022-12-07T11:11:16;2.50;;;1.80;;
20146;SDS011;10234;50.856;15.716;2022-12-07T11:13:51;1.58;;;1.40;;
20146;SDS011;10234;50.856;15.716;2022-12-07T11:16:26;1.77;;;1.42;;
20146;SDS011;10234;50.856;15.716;2022-12-07T11:19:11;2.97;;;1.70;;
20146;SDS011;10234;50.856;15.716;2022-12-07T11:21:58;1.67;;;1.58;;
20146;SDS011;10234;50.856;15.716;2022-12-07T11:24:30;3.00;;;1.75;;
20146;SDS011;10234;50.856;15.716;2022-12-07T11:27:09;2.55;;;1.60;;
20146;SDS011;10234;50.856;15.716;2022-12-07T11:29:50;1.80;;;1.40;;
20146;SDS011;10234;50.856;15.716;2022-12-07T11:32:34;2.10;;;1.35;;
20146;SDS011;10234;50.856;15.716;2022-12-07T11:35:11;2.05;;;1.42;;
20146;SDS011;10234;50.856;15.716;2022-12-07T11:37:43;3.00;;;1.65;;
20146;SDS011;10234;50.856;15.716;2022-12-07T11:40:16;1.65;;;1.55;;
20146;SDS011;10234;50.856;15.716;2022-12-07T11:42:48;2.78;;;1.35;;
20146;SDS011;10234;50.856;15.716;2022-12-07T11:45:23;3.03;;;1.27;;
20146;SDS011;10234;50.856;15.716;2022-12-07T11:47:55;2.60;;;1.30;;
20146;SDS011;10234;50.856;15.716;2022-12-07T11:50:27;3.78;;;1.60;;
20146;SDS011;10234;50.856;15.716;2022-12-07T11:53:01;1.88;;;1.65;;
20146;SDS011;10234;50.856;15.716;2022-12-07T11:55:32;3.10;;;1.40;;
20146;SDS011;10234;50.856;15.716;2022-12-07T11:58:11;1.70;;;1.40;;
20146;SDS011;10234;50.856;15.716;2022-12-07T12:00:47;1.65;;;1.23;;
20146;SDS011;10234;50.856;15.716;2022-12-07T12:03:20;1.60;;;1.40;;
20146;SDS011;10234;50.856;15.716;2022-12-07T12:05:55;2.42;;;1.80;;
20146;SDS011;10234;50.856;15.716;2022-12-07T12:08:23;2.70;;;1.50;;
20146;SDS011;10234;50.856;15.716;2022-12-07T12:10:59;2.83;;;1.50;;
20146;SDS011;10234;50.856;15.716;2022-12-07T12:13:48;1.85;;;1.50;;
20146;SDS011;10234;50.856;15.716;2022-12-07T12:16:44;2.03;;;1.67;;
20146;SDS011;10234;50.856;15.716;2022-12-07T12:19:26;3.28;;;1.70;;
20146;SDS011;10234;50.856;15.716;2022-12-07T12:22:02;1.73;;;1.50;;
20146;SDS011;10234;50.856;15.716;2022-12-07T12:24:36;2.75;;;1.48;;
20146;SDS011;10234;50.856;15.716;2022-12-07T12:27:06;1.33;;;1.27;;
20146;SDS011;10234;50.856;15.716;2022-12-07T12:29:35;2.22;;;1.60;;
20146;SDS011;10234;50.856;15.716;2022-12-07T12:32:07;1.50;;;1.40;;
20146;SDS011;10234;50.856;15.716;2022-12-07T12:34:42;2.05;;;1.58;;
20146;SDS011;10234;50.856;15.716;2022-12-07T12:43:38;2.15;;;1.38;;
20146;SDS011;10234;50.856;15.716;2022-12-07T12:46:38;2.80;;;0.80;;
20146;SDS011;10234;50.856;15.716;2022-12-07T12:55:19;1.50;;;1.40;;
20146;SDS011;10234;50.856;15.716;2022-12-07T13:03:54;2.10;;;0.90;;
20146;SDS011;10234;50.856;15.716;2022-12-07T13:06:31;2.50;;;1.13;;
20146;SDS011;10234;50.856;15.716;2022-12-07T13:09:03;1.40;;;1.30;;
20146;SDS011;10234;50.856;15.716;2022-12-07T13:11:32;2.45;;;1.92;;
20146;SDS011;10234;50.856;15.716;2022-12-07T13:17:08;1.70;;;1.60;;
20146;SDS011;10234;50.856;15.716;2022-12-07T13:19:52;2.42;;;1.70;;
20146;SDS011;10234;50.856;15.716;2022-12-07T13:22:34;2.45;;;1.60;;
20146;SDS011;10234;50.856;15.716;2022-12-07T13:25:07;2.90;;;1.33;;
20146;SDS011;10234;50.856;15.716;2022-12-07T13:27:39;2.97;;;1.85;;
20146;SDS011;10234;50.856;15.716;2022-12-07T13:30:13;1.95;;;1.80;;
20146;SDS011;10234;50.856;15.716;2022-12-07T13:32:43;1.90;;;1.60;;
20146;SDS011;10234;50.856;15.716;2022-12-07T13:35:29;2.95;;;2.28;;
20146;SDS011;10234;50.856;15.716;2022-12-07T13:37:59;1.92;;;1.65;;
20146;SDS011;10234;50.856;15.716;2022-12-07T13:40:27;2.40;;;2.20;;
20146;SDS011;10234;50.856;15.716;2022-12-07T13:42:59;2.83;;;2.13;;
20146;SDS011;10234;50.856;15.716;2022-12-07T13:45:28;3.95;;;2.33;;
20146;SDS011;10234;50.856;15.716;2022-12-07T13:48:15;2.38;;;2.03;;
20146;SDS011;10234;50.856;15.716;2022-12-07T13:50:52;2.90;;;2.60;;
20146;SDS011;10234;50.856;15.716;2022-12-07T13:53:20;5.57;;;2.83;;
20146;SDS011;10234;50.856;15.716;2022-12-07T13:55:48;6.15;;;3.90;;
20146;SDS011;10234;50.856;15.716;2022-12-07T13:58:16;4.40;;;2.90;;
20146;SDS011;10234;50.856;15.716;2022-12-07T14:00:43;8.48;;;3.72;;
20146;SDS011;10234;50.856;15.716;2022-12-07T14:06:13;8.48;;;5.85;;
20146;SDS011;10234;50.856;15.716;2022-12-07T14:08:45;13.88;;;8.30;;
20146;SDS011;10234;50.856;15.716;2022-12-07T14:11:14;8.48;;;5.03;;
20146;SDS011;10234;50.856;15.716;2022-12-07T14:13:50;8.75;;;5.15;;
20146;SDS011;10234;50.856;15.716;2022-12-07T14:16:24;6.25;;;4.38;;
20146;SDS011;10234;50.856;15.716;2022-12-07T14:18:56;5.22;;;4.43;;
20146;SDS011;10234;50.856;15.716;2022-12-07T14:21:24;6.65;;;4.97;;
20146;SDS011;10234;50.856;15.716;2022-12-07T14:24:12;5.90;;;4.40;;
20146;SDS011;10234;50.856;15.716;2022-12-07T14:26:43;5.45;;;3.60;;
20146;SDS011;10234;50.856;15.716;2022-12-07T14:29:31;5.07;;;3.65;;
20146;SDS011;10234;50.856;15.716;2022-12-07T14:32:10;7.35;;;4.30;;
20146;SDS011;10234;50.856;15.716;2022-12-07T14:34:57;4.70;;;3.50;;
20146;SDS011;10234;50.856;15.716;2022-12-07T14:37:26;4.28;;;2.95;;
20146;SDS011;10234;50.856;15.716;2022-12-07T14:39:54;6.30;;;4.22;;
20146;SDS011;10234;50.856;15.716;2022-12-07T14:42:21;9.05;;;6.63;;
20146;SDS011;10234;50.856;15.716;2022-12-07T14:44:53;18.88;;;11.77;;
20146;SDS011;10234;50.856;15.716;2022-12-07T14:47:20;17.42;;;9.80;;
20146;SDS011;10234;50.856;15.716;2022-12-07T14:49:47;31.63;;;17.58;;
20146;SDS011;10234;50.856;15.716;2022-12-07T14:52:15;27.13;;;19.27;;
20146;SDS011;10234;50.856;15.716;2022-12-07T14:54:45;11.35;;;8.15;;
20146;SDS011;10234;50.856;15.716;2022-12-07T14:57:12;23.05;;;15.82;;
20146;SDS011;10234;50.856;15.716;2022-12-07T14:59:39;8.40;;;6.10;;
20146;SDS011;10234;50.856;15.716;2022-12-07T15:02:09;25.90;;;17.20;;
20146;SDS011;10234;50.856;15.716;2022-12-07T15:04:37;4.20;;;3.55;;
20146;SDS011;10234;50.856;15.716;2022-12-07T15:07:05;2.75;;;2.00;;
20146;SDS011;10234;50.856;15.716;2022-12-07T15:09:35;8.93;;;4.07;;
20146;SDS011;10234;50.856;15.716;2022-12-07T15:12:02;7.20;;;4.82;;
20146;SDS011;10234;50.856;15.716;2022-12-07T15:14:29;2.72;;;2.00;;
20146;SDS011;10234;50.856;15.716;2022-12-07T15:16:56;3.90;;;2.30;;
20146;SDS011;10234;50.856;15.716;2022-12-07T15:19:24;7.90;;;7.00;;
20146;SDS011;10234;50.856;15.716;2022-12-07T15:21:52;2.88;;;2.28;;
20146;SDS011;10234;50.856;15.716;2022-12-07T15:24:19;2.35;;;2.15;;
20146;SDS011;10234;50.856;15.716;2022-12-07T15:26:48;4.00;;;2.80;;
20146;SDS011;10234;50.856;15.716;2022-12-07T15:29:15;3.63;;;3.10;;